Startpagina
METAR-TAF:

METAR-TAF

Vliegvelden :

Oxford, Engeland

breedte: 51-50-13N, lengte: 1-19-12W, hoogte: 82 m

Actueel weer

Dit bericht is 19 minuten geleden gemaakt, om 05:20 UTC
Wind 12 kt uit het westzuidwesten
Temperatuur 8°C
Vochtigheid 71%
Druk 997 hPa
Zicht 10 km of meer
geen wolken onder 1500 m en geen cumulonimbus

METAR: EGTK 060520Z 25012KT CAVOK 08/03 Q0997

Tijdstip: 06:39 (05:39 UTC)

Verwachting

Dit bericht is 15 uur en het 41 minuten geleden gemaakt, om 13:58 UTC
Verwachting geldig van 05 om 15 UTC tot 05 om 20 UTC
Wind 13 kt uit het noordwesten
Zicht 10 km of meer
Verspreide wolken op 3000 ft
Kans 40% :
Tijdelijke
van 05 om 15 UTC tot 05 om 20 UTC
Wind 16 kt uit het noordwesten met uitschieters tot 26 kt
Zicht: 7000 m
regenbuien

TAF: EGTK 051358Z 0515/0520 31013KT 9999 SCT030 PROB40 TEMPO 0515/0520 31016G26KT 7000 SHRA

Waarnemingen en weersverwachtingen van meer dan 4000 vliegvelden (METAR en TAF).

De beschikbare stations zijn de gele en rode punten op de kaart.

Ga met uw muis naar het station om de naam te zien.

Klik dan om waarnemingen en weersverwachtingen te zien.

kaart wijzigen: klik op de groene knoppen met een zwart kruis om in te zoomen, op de groene knop met een streepje om uit te zoomen of op de groene pijlen voor aangrenzende kaarten.


METAR-TAF: